sensor_id;sensor_type;location;lat;lon;timestamp;P1;durP1;ratioP1;P2;durP2;ratioP2
1010;SDS011;494;48.744;10.106;2023-08-08T00:01:43;11.30;;;4.80;;
1010;SDS011;494;48.744;10.106;2023-08-08T00:04:24;9.47;;;4.23;;
1010;SDS011;494;48.744;10.106;2023-08-08T00:06:59;10.30;;;4.20;;
1010;SDS011;494;48.744;10.106;2023-08-08T00:09:32;9.47;;;4.20;;
1010;SDS011;494;48.744;10.106;2023-08-08T00:12:24;10.10;;;4.50;;
1010;SDS011;494;48.744;10.106;2023-08-08T00:18:20;12.57;;;6.40;;
1010;SDS011;494;48.744;10.106;2023-08-08T00:21:20;13.83;;;6.03;;
1010;SDS011;494;48.744;10.106;2023-08-08T00:24:16;11.90;;;5.80;;
1010;SDS011;494;48.744;10.106;2023-08-08T00:27:02;16.80;;;6.63;;
1010;SDS011;494;48.744;10.106;2023-08-08T00:56:54;11.47;;;4.60;;
1010;SDS011;494;48.744;10.106;2023-08-08T00:59:52;12.13;;;5.50;;
1010;SDS011;494;48.744;10.106;2023-08-08T01:02:41;11.70;;;5.37;;
1010;SDS011;494;48.744;10.106;2023-08-08T01:05:15;12.03;;;5.40;;
1010;SDS011;494;48.744;10.106;2023-08-08T01:07:52;15.43;;;5.50;;
1010;SDS011;494;48.744;10.106;2023-08-08T01:10:38;12.80;;;4.90;;
1010;SDS011;494;48.744;10.106;2023-08-08T01:16:33;12.10;;;6.00;;
1010;SDS011;494;48.744;10.106;2023-08-08T01:35:06;11.23;;;4.10;;
1010;SDS011;494;48.744;10.106;2023-08-08T01:38:10;11.53;;;4.07;;
1010;SDS011;494;48.744;10.106;2023-08-08T01:44:57;13.93;;;4.67;;
1010;SDS011;494;48.744;10.106;2023-08-08T01:54:06;11.77;;;5.20;;
1010;SDS011;494;48.744;10.106;2023-08-08T01:56:42;11.90;;;5.20;;
1010;SDS011;494;48.744;10.106;2023-08-08T01:59:20;11.77;;;5.00;;
1010;SDS011;494;48.744;10.106;2023-08-08T02:02:03;17.57;;;5.47;;
1010;SDS011;494;48.744;10.106;2023-08-08T02:04:44;11.37;;;5.27;;
1010;SDS011;494;48.744;10.106;2023-08-08T02:07:23;11.30;;;5.63;;
1010;SDS011;494;48.744;10.106;2023-08-08T02:10:09;16.00;;;5.20;;
1010;SDS011;494;48.744;10.106;2023-08-08T02:12:39;10.53;;;5.20;;
1010;SDS011;494;48.744;10.106;2023-08-08T02:15:18;12.93;;;5.47;;
1010;SDS011;494;48.744;10.106;2023-08-08T02:17:56;10.57;;;4.97;;
1010;SDS011;494;48.744;10.106;2023-08-08T02:20:42;9.93;;;4.50;;
1010;SDS011;494;48.744;10.106;2023-08-08T02:23:20;13.83;;;6.00;;
1010;SDS011;494;48.744;10.106;2023-08-08T02:26:02;12.67;;;5.40;;
1010;SDS011;494;48.744;10.106;2023-08-08T02:28:37;12.80;;;5.03;;
1010;SDS011;494;48.744;10.106;2023-08-08T02:31:36;16.37;;;4.90;;
1010;SDS011;494;48.744;10.106;2023-08-08T02:34:23;12.40;;;5.40;;
1010;SDS011;494;48.744;10.106;2023-08-08T02:37:02;14.67;;;5.20;;
1010;SDS011;494;48.744;10.106;2023-08-08T02:39:33;14.27;;;4.90;;
1010;SDS011;494;48.744;10.106;2023-08-08T02:42:19;13.37;;;5.20;;
1010;SDS011;494;48.744;10.106;2023-08-08T02:44:49;14.20;;;5.60;;
1010;SDS011;494;48.744;10.106;2023-08-08T02:47:25;11.97;;;6.07;;
1010;SDS011;494;48.744;10.106;2023-08-08T02:50:03;12.10;;;6.60;;
1010;SDS011;494;48.744;10.106;2023-08-08T02:52:37;13.27;;;6.47;;
1010;SDS011;494;48.744;10.106;2023-08-08T02:55:12;12.67;;;5.70;;
1010;SDS011;494;48.744;10.106;2023-08-08T02:58:11;11.83;;;5.10;;
1010;SDS011;494;48.744;10.106;2023-08-08T03:00:45;14.30;;;5.47;;
1010;SDS011;494;48.744;10.106;2023-08-08T03:03:24;11.03;;;5.80;;
1010;SDS011;494;48.744;10.106;2023-08-08T03:05:55;12.90;;;5.47;;
1010;SDS011;494;48.744;10.106;2023-08-08T03:08:31;12.40;;;5.53;;
1010;SDS011;494;48.744;10.106;2023-08-08T03:11:36;14.10;;;5.73;;
1010;SDS011;494;48.744;10.106;2023-08-08T03:14:40;14.13;;;5.50;;
1010;SDS011;494;48.744;10.106;2023-08-08T03:17:11;11.23;;;5.37;;
1010;SDS011;494;48.744;10.106;2023-08-08T03:19:44;13.03;;;5.50;;
1010;SDS011;494;48.744;10.106;2023-08-08T03:22:22;11.77;;;5.70;;
1010;SDS011;494;48.744;10.106;2023-08-08T03:24:56;13.07;;;6.00;;
1010;SDS011;494;48.744;10.106;2023-08-08T03:27:44;11.80;;;6.27;;
1010;SDS011;494;48.744;10.106;2023-08-08T03:30:21;12.63;;;6.20;;
1010;SDS011;494;48.744;10.106;2023-08-08T03:32:57;15.80;;;5.93;;
1010;SDS011;494;48.744;10.106;2023-08-08T03:35:34;13.47;;;6.27;;
1010;SDS011;494;48.744;10.106;2023-08-08T03:38:16;12.17;;;5.57;;
1010;SDS011;494;48.744;10.106;2023-08-08T03:41:40;12.83;;;5.60;;
1010;SDS011;494;48.744;10.106;2023-08-08T04:05:37;11.27;;;4.00;;
1010;SDS011;494;48.744;10.106;2023-08-08T04:09:24;9.50;;;3.50;;
1010;SDS011;494;48.744;10.106;2023-08-08T04:13:34;9.03;;;3.50;;
1010;SDS011;494;48.744;10.106;2023-08-08T04:17:48;9.07;;;3.90;;
1010;SDS011;494;48.744;10.106;2023-08-08T04:20:37;11.73;;;4.20;;
1010;SDS011;494;48.744;10.106;2023-08-08T04:23:36;11.20;;;4.90;;
1010;SDS011;494;48.744;10.106;2023-08-08T04:26:14;9.17;;;4.07;;
1010;SDS011;494;48.744;10.106;2023-08-08T04:29:13;9.00;;;3.50;;
1010;SDS011;494;48.744;10.106;2023-08-08T04:32:16;9.30;;;3.80;;
1010;SDS011;494;48.744;10.106;2023-08-08T04:35:32;11.13;;;3.87;;
1010;SDS011;494;48.744;10.106;2023-08-08T04:42:45;15.40;;;5.90;;
1010;SDS011;494;48.744;10.106;2023-08-08T04:46:05;13.57;;;5.30;;
1010;SDS011;494;48.744;10.106;2023-08-08T04:49:45;10.90;;;4.87;;
1010;SDS011;494;48.744;10.106;2023-08-08T04:52:50;12.07;;;5.80;;
1010;SDS011;494;48.744;10.106;2023-08-08T04:56:05;10.90;;;5.17;;
1010;SDS011;494;48.744;10.106;2023-08-08T04:59:05;10.97;;;5.00;;
1010;SDS011;494;48.744;10.106;2023-08-08T05:01:49;11.30;;;4.97;;
1010;SDS011;494;48.744;10.106;2023-08-08T05:04:20;11.30;;;4.77;;
1010;SDS011;494;48.744;10.106;2023-08-08T05:06:59;11.47;;;4.87;;
1010;SDS011;494;48.744;10.106;2023-08-08T05:09:45;11.60;;;5.50;;
1010;SDS011;494;48.744;10.106;2023-08-08T05:12:22;12.57;;;4.73;;
1010;SDS011;494;48.744;10.106;2023-08-08T05:15:24;9.83;;;3.67;;
1010;SDS011;494;48.744;10.106;2023-08-08T05:18:15;8.37;;;3.80;;
1010;SDS011;494;48.744;10.106;2023-08-08T05:20:50;10.53;;;5.20;;
1010;SDS011;494;48.744;10.106;2023-08-08T05:23:41;12.60;;;5.70;;
1010;SDS011;494;48.744;10.106;2023-08-08T05:26:13;11.50;;;4.93;;
1010;SDS011;494;48.744;10.106;2023-08-08T05:28:58;15.37;;;5.70;;
1010;SDS011;494;48.744;10.106;2023-08-08T05:31:45;15.43;;;5.20;;
1010;SDS011;494;48.744;10.106;2023-08-08T05:34:17;18.03;;;6.80;;
1010;SDS011;494;48.744;10.106;2023-08-08T05:36:56;13.60;;;5.90;;
1010;SDS011;494;48.744;10.106;2023-08-08T05:42:39;14.37;;;6.50;;
1010;SDS011;494;48.744;10.106;2023-08-08T05:55:10;12.67;;;5.83;;
1010;SDS011;494;48.744;10.106;2023-08-08T05:58:12;13.90;;;6.20;;
1010;SDS011;494;48.744;10.106;2023-08-08T06:02:14;12.20;;;6.30;;
1010;SDS011;494;48.744;10.106;2023-08-08T06:05:46;12.13;;;5.73;;
1010;SDS011;494;48.744;10.106;2023-08-08T06:30:04;13.50;;;6.43;;
1010;SDS011;494;48.744;10.106;2023-08-08T06:32:49;11.33;;;5.77;;
1010;SDS011;494;48.744;10.106;2023-08-08T06:35:46;12.60;;;5.80;;
1010;SDS011;494;48.744;10.106;2023-08-08T06:38:57;12.70;;;6.20;;
1010;SDS011;494;48.744;10.106;2023-08-08T06:42:03;13.63;;;6.40;;
1010;SDS011;494;48.744;10.106;2023-08-08T08:21:48;11.30;;;4.40;;
1010;SDS011;494;48.744;10.106;2023-08-08T08:24:21;13.47;;;4.10;;
1010;SDS011;494;48.744;10.106;2023-08-08T08:27:19;10.10;;;4.00;;
1010;SDS011;494;48.744;10.106;2023-08-08T08:29:50;10.87;;;4.03;;
1010;SDS011;494;48.744;10.106;2023-08-08T08:35:23;11.80;;;4.00;;
1010;SDS011;494;48.744;10.106;2023-08-08T08:40:39;9.90;;;4.37;;
1010;SDS011;494;48.744;10.106;2023-08-08T08:43:14;10.33;;;3.70;;
1010;SDS011;494;48.744;10.106;2023-08-08T08:45:46;10.33;;;4.00;;
1010;SDS011;494;48.744;10.106;2023-08-08T08:48:21;10.90;;;4.30;;
1010;SDS011;494;48.744;10.106;2023-08-08T08:51:04;11.30;;;4.90;;
1010;SDS011;494;48.744;10.106;2023-08-08T08:53:35;9.63;;;4.70;;
1010;SDS011;494;48.744;10.106;2023-08-08T08:56:19;9.50;;;2.80;;
1010;SDS011;494;48.744;10.106;2023-08-08T08:59:03;13.50;;;3.03;;
1010;SDS011;494;48.744;10.106;2023-08-08T09:01:35;10.33;;;2.73;;
1010;SDS011;494;48.744;10.106;2023-08-08T09:04:08;9.90;;;2.43;;
1010;SDS011;494;48.744;10.106;2023-08-08T09:06:40;9.87;;;2.83;;
1010;SDS011;494;48.744;10.106;2023-08-08T09:09:13;8.40;;;2.40;;
1010;SDS011;494;48.744;10.106;2023-08-08T09:12:01;10.80;;;2.90;;
1010;SDS011;494;48.744;10.106;2023-08-08T09:14:33;11.50;;;2.80;;
1010;SDS011;494;48.744;10.106;2023-08-08T09:17:12;10.43;;;3.13;;
1010;SDS011;494;48.744;10.106;2023-08-08T09:19:43;11.07;;;3.07;;
1010;SDS011;494;48.744;10.106;2023-08-08T09:37:30;10.97;;;3.03;;
1010;SDS011;494;48.744;10.106;2023-08-08T09:40:01;9.57;;;3.00;;
1010;SDS011;494;48.744;10.106;2023-08-08T09:42:41;10.60;;;2.87;;
1010;SDS011;494;48.744;10.106;2023-08-08T09:45:12;9.10;;;3.37;;
1010;SDS011;494;48.744;10.106;2023-08-08T09:47:48;10.20;;;4.00;;
1010;SDS011;494;48.744;10.106;2023-08-08T09:50:23;13.03;;;5.50;;
1010;SDS011;494;48.744;10.106;2023-08-08T09:52:55;9.53;;;3.40;;
1010;SDS011;494;48.744;10.106;2023-08-08T09:55:44;9.87;;;3.47;;
1010;SDS011;494;48.744;10.106;2023-08-08T09:58:15;11.87;;;4.10;;
1010;SDS011;494;48.744;10.106;2023-08-08T10:00:51;11.70;;;3.80;;
1010;SDS011;494;48.744;10.106;2023-08-08T10:03:20;10.60;;;3.17;;
1010;SDS011;494;48.744;10.106;2023-08-08T10:05:51;9.30;;;2.90;;
1010;SDS011;494;48.744;10.106;2023-08-08T10:08:21;11.50;;;2.80;;
1010;SDS011;494;48.744;10.106;2023-08-08T10:10:51;9.70;;;3.10;;
1010;SDS011;494;48.744;10.106;2023-08-08T10:13:23;9.80;;;3.23;;
1010;SDS011;494;48.744;10.106;2023-08-08T10:16:07;10.53;;;3.30;;
1010;SDS011;494;48.744;10.106;2023-08-08T10:18:46;12.80;;;3.63;;
1010;SDS011;494;48.744;10.106;2023-08-08T10:21:32;11.13;;;3.73;;
1010;SDS011;494;48.744;10.106;2023-08-08T10:24:04;12.77;;;5.23;;
1010;SDS011;494;48.744;10.106;2023-08-08T10:26:52;13.20;;;6.20;;
1010;SDS011;494;48.744;10.106;2023-08-08T10:29:29;11.73;;;3.23;;
1010;SDS011;494;48.744;10.106;2023-08-08T10:32:04;11.70;;;6.83;;
1010;SDS011;494;48.744;10.106;2023-08-08T10:34:36;13.60;;;8.03;;
1010;SDS011;494;48.744;10.106;2023-08-08T10:37:08;12.97;;;5.90;;
1010;SDS011;494;48.744;10.106;2023-08-08T10:39:48;11.70;;;5.80;;
1010;SDS011;494;48.744;10.106;2023-08-08T10:42:40;10.00;;;4.70;;
1010;SDS011;494;48.744;10.106;2023-08-08T10:45:14;11.57;;;4.90;;
1010;SDS011;494;48.744;10.106;2023-08-08T10:47:48;11.53;;;5.00;;
1010;SDS011;494;48.744;10.106;2023-08-08T10:50:21;10.07;;;3.90;;
1010;SDS011;494;48.744;10.106;2023-08-08T10:52:53;10.67;;;3.03;;
1010;SDS011;494;48.744;10.106;2023-08-08T10:55:26;9.10;;;2.93;;
1010;SDS011;494;48.744;10.106;2023-08-08T10:58:04;9.70;;;3.00;;
1010;SDS011;494;48.744;10.106;2023-08-08T11:00:35;11.33;;;3.27;;
1010;SDS011;494;48.744;10.106;2023-08-08T11:03:13;9.30;;;2.87;;
1010;SDS011;494;48.744;10.106;2023-08-08T11:05:45;10.33;;;3.33;;
1010;SDS011;494;48.744;10.106;2023-08-08T11:08:17;10.63;;;3.00;;
1010;SDS011;494;48.744;10.106;2023-08-08T11:11:04;10.80;;;3.20;;
1010;SDS011;494;48.744;10.106;2023-08-08T11:13:39;9.77;;;2.90;;
1010;SDS011;494;48.744;10.106;2023-08-08T11:16:11;10.40;;;3.10;;
1010;SDS011;494;48.744;10.106;2023-08-08T11:18:46;9.30;;;2.70;;
1010;SDS011;494;48.744;10.106;2023-08-08T11:21:17;11.53;;;4.37;;
1010;SDS011;494;48.744;10.106;2023-08-08T11:23:47;10.30;;;3.73;;
1010;SDS011;494;48.744;10.106;2023-08-08T11:26:17;10.57;;;3.03;;
1010;SDS011;494;48.744;10.106;2023-08-08T11:28:49;9.30;;;2.50;;
1010;SDS011;494;48.744;10.106;2023-08-08T12:23:26;13.17;;;3.20;;
1010;SDS011;494;48.744;10.106;2023-08-08T12:25:57;11.27;;;3.47;;
1010;SDS011;494;48.744;10.106;2023-08-08T12:28:54;10.23;;;4.87;;
1010;SDS011;494;48.744;10.106;2023-08-08T12:31:23;10.87;;;4.07;;
1010;SDS011;494;48.744;10.106;2023-08-08T12:33:54;11.00;;;4.10;;
1010;SDS011;494;48.744;10.106;2023-08-08T12:36:30;12.30;;;6.70;;
1010;SDS011;494;48.744;10.106;2023-08-08T12:39:02;11.00;;;2.77;;
1010;SDS011;494;48.744;10.106;2023-08-08T12:41:34;10.33;;;2.80;;
1010;SDS011;494;48.744;10.106;2023-08-08T12:44:06;11.10;;;3.20;;
1010;SDS011;494;48.744;10.106;2023-08-08T12:46:39;11.47;;;2.90;;
1010;SDS011;494;48.744;10.106;2023-08-08T12:49:17;11.07;;;3.00;;
1010;SDS011;494;48.744;10.106;2023-08-08T12:51:55;9.50;;;2.50;;
1010;SDS011;494;48.744;10.106;2023-08-08T12:54:34;10.70;;;3.37;;
1010;SDS011;494;48.744;10.106;2023-08-08T12:57:05;10.30;;;3.10;;
1010;SDS011;494;48.744;10.106;2023-08-08T12:59:35;9.50;;;2.80;;
1010;SDS011;494;48.744;10.106;2023-08-08T13:02:23;10.90;;;3.97;;
1010;SDS011;494;48.744;10.106;2023-08-08T13:04:55;10.23;;;3.17;;
1010;SDS011;494;48.744;10.106;2023-08-08T13:07:26;9.77;;;2.90;;
1010;SDS011;494;48.744;10.106;2023-08-08T13:13:40;10.23;;;2.67;;
1010;SDS011;494;48.744;10.106;2023-08-08T13:16:09;16.30;;;2.70;;
1010;SDS011;494;48.744;10.106;2023-08-08T13:18:44;10.27;;;2.90;;
1010;SDS011;494;48.744;10.106;2023-08-08T13:21:37;10.67;;;2.80;;
1010;SDS011;494;48.744;10.106;2023-08-08T13:24:09;11.57;;;3.53;;
1010;SDS011;494;48.744;10.106;2023-08-08T13:26:41;11.93;;;3.20;;
1010;SDS011;494;48.744;10.106;2023-08-08T13:29:31;10.40;;;3.20;;
1010;SDS011;494;48.744;10.106;2023-08-08T13:32:02;12.47;;;2.93;;
1010;SDS011;494;48.744;10.106;2023-08-08T13:34:33;10.30;;;2.50;;
1010;SDS011;494;48.744;10.106;2023-08-08T13:37:03;11.03;;;2.50;;
1010;SDS011;494;48.744;10.106;2023-08-08T13:39:32;10.37;;;2.93;;
1010;SDS011;494;48.744;10.106;2023-08-08T13:42:02;10.83;;;2.90;;
1010;SDS011;494;48.744;10.106;2023-08-08T13:44:33;11.50;;;3.20;;
1010;SDS011;494;48.744;10.106;2023-08-08T13:47:03;9.90;;;2.37;;
1010;SDS011;494;48.744;10.106;2023-08-08T13:49:32;9.90;;;2.30;;
1010;SDS011;494;48.744;10.106;2023-08-08T13:52:04;10.67;;;3.00;;
1010;SDS011;494;48.744;10.106;2023-08-08T13:54:34;12.60;;;3.00;;
1010;SDS011;494;48.744;10.106;2023-08-08T13:57:04;10.73;;;2.80;;
1010;SDS011;494;48.744;10.106;2023-08-08T13:59:37;10.50;;;2.97;;
1010;SDS011;494;48.744;10.106;2023-08-08T14:02:06;10.53;;;3.23;;
1010;SDS011;494;48.744;10.106;2023-08-08T14:04:36;12.17;;;2.63;;
1010;SDS011;494;48.744;10.106;2023-08-08T14:07:06;10.73;;;3.30;;
1010;SDS011;494;48.744;10.106;2023-08-08T14:09:35;12.00;;;3.60;;
1010;SDS011;494;48.744;10.106;2023-08-08T14:12:06;9.97;;;2.77;;
1010;SDS011;494;48.744;10.106;2023-08-08T14:14:52;10.37;;;2.60;;
1010;SDS011;494;48.744;10.106;2023-08-08T14:17:26;9.90;;;2.90;;
1010;SDS011;494;48.744;10.106;2023-08-08T14:19:58;12.90;;;3.00;;
1010;SDS011;494;48.744;10.106;2023-08-08T14:22:44;10.20;;;2.87;;
1010;SDS011;494;48.744;10.106;2023-08-08T14:25:29;10.67;;;2.80;;
1010;SDS011;494;48.744;10.106;2023-08-08T14:28:03;12.23;;;2.93;;
1010;SDS011;494;48.744;10.106;2023-08-08T14:30:36;12.33;;;3.10;;
1010;SDS011;494;48.744;10.106;2023-08-08T14:33:05;10.20;;;2.80;;
1010;SDS011;494;48.744;10.106;2023-08-08T14:35:37;10.23;;;2.97;;
1010;SDS011;494;48.744;10.106;2023-08-08T14:38:07;11.13;;;2.83;;
1010;SDS011;494;48.744;10.106;2023-08-08T14:40:36;11.13;;;3.93;;
1010;SDS011;494;48.744;10.106;2023-08-08T14:43:21;10.30;;;3.30;;
1010;SDS011;494;48.744;10.106;2023-08-08T14:45:54;15.63;;;2.90;;
1010;SDS011;494;48.744;10.106;2023-08-08T14:48:25;10.50;;;2.80;;
1010;SDS011;494;48.744;10.106;2023-08-08T14:50:55;9.90;;;2.90;;
1010;SDS011;494;48.744;10.106;2023-08-08T14:53:24;11.30;;;2.43;;
1010;SDS011;494;48.744;10.106;2023-08-08T14:55:54;12.53;;;3.00;;
1010;SDS011;494;48.744;10.106;2023-08-08T14:58:24;9.60;;;2.70;;
1010;SDS011;494;48.744;10.106;2023-08-08T15:00:57;10.90;;;2.87;;
1010;SDS011;494;48.744;10.106;2023-08-08T15:03:28;10.07;;;2.97;;
1010;SDS011;494;48.744;10.106;2023-08-08T15:06:03;11.43;;;2.80;;
1010;SDS011;494;48.744;10.106;2023-08-08T15:08:34;9.87;;;2.40;;
1010;SDS011;494;48.744;10.106;2023-08-08T15:11:04;12.60;;;3.00;;
1010;SDS011;494;48.744;10.106;2023-08-08T15:13:34;9.57;;;2.60;;
1010;SDS011;494;48.744;10.106;2023-08-08T15:16:07;11.60;;;3.13;;
1010;SDS011;494;48.744;10.106;2023-08-08T15:18:39;10.70;;;3.23;;
1010;SDS011;494;48.744;10.106;2023-08-08T15:21:29;9.53;;;2.63;;
1010;SDS011;494;48.744;10.106;2023-08-08T15:24:01;9.20;;;2.43;;
1010;SDS011;494;48.744;10.106;2023-08-08T15:26:30;12.00;;;2.83;;
1010;SDS011;494;48.744;10.106;2023-08-08T15:29:00;9.47;;;2.63;;
1010;SDS011;494;48.744;10.106;2023-08-08T15:31:35;11.60;;;3.30;;
1010;SDS011;494;48.744;10.106;2023-08-08T15:34:08;10.07;;;3.07;;
1010;SDS011;494;48.744;10.106;2023-08-08T15:36:54;10.40;;;2.93;;
1010;SDS011;494;48.744;10.106;2023-08-08T15:45:16;10.93;;;3.37;;
1010;SDS011;494;48.744;10.106;2023-08-08T15:52:06;11.67;;;3.50;;
1010;SDS011;494;48.744;10.106;2023-08-08T15:54:40;9.87;;;3.43;;
1010;SDS011;494;48.744;10.106;2023-08-08T15:57:12;10.93;;;3.50;;
1010;SDS011;494;48.744;10.106;2023-08-08T16:06:10;11.30;;;3.23;;
1010;SDS011;494;48.744;10.106;2023-08-08T16:08:49;10.97;;;3.30;;
1010;SDS011;494;48.744;10.106;2023-08-08T16:11:21;12.13;;;3.43;;
1010;SDS011;494;48.744;10.106;2023-08-08T16:13:59;13.40;;;4.03;;
1010;SDS011;494;48.744;10.106;2023-08-08T16:16:56;10.20;;;3.60;;
1010;SDS011;494;48.744;10.106;2023-08-08T16:19:33;11.90;;;3.20;;
1010;SDS011;494;48.744;10.106;2023-08-08T17:00:37;10.07;;;3.37;;
1010;SDS011;494;48.744;10.106;2023-08-08T17:52:24;11.20;;;3.53;;
1010;SDS011;494;48.744;10.106;2023-08-08T17:54:58;13.10;;;3.80;;
1010;SDS011;494;48.744;10.106;2023-08-08T17:57:50;13.47;;;4.90;;
1010;SDS011;494;48.744;10.106;2023-08-08T18:00:22;11.90;;;3.50;;
1010;SDS011;494;48.744;10.106;2023-08-08T18:02:52;10.40;;;3.60;;
1010;SDS011;494;48.744;10.106;2023-08-08T18:05:22;12.90;;;3.10;;
1010;SDS011;494;48.744;10.106;2023-08-08T18:07:53;10.83;;;3.07;;
1010;SDS011;494;48.744;10.106;2023-08-08T18:43:58;12.97;;;3.50;;
1010;SDS011;494;48.744;10.106;2023-08-08T18:46:28;12.50;;;3.57;;
1010;SDS011;494;48.744;10.106;2023-08-08T18:49:18;10.23;;;3.37;;
1010;SDS011;494;48.744;10.106;2023-08-08T18:51:49;12.97;;;3.73;;
1010;SDS011;494;48.744;10.106;2023-08-08T18:54:29;14.57;;;3.67;;
1010;SDS011;494;48.744;10.106;2023-08-08T18:57:03;9.17;;;3.30;;
1010;SDS011;494;48.744;10.106;2023-08-08T18:59:35;10.20;;;3.47;;
1010;SDS011;494;48.744;10.106;2023-08-08T19:02:04;16.27;;;4.30;;
1010;SDS011;494;48.744;10.106;2023-08-08T19:04:34;15.90;;;7.60;;
1010;SDS011;494;48.744;10.106;2023-08-08T19:07:04;13.00;;;4.03;;
1010;SDS011;494;48.744;10.106;2023-08-08T19:09:36;9.10;;;3.20;;
1010;SDS011;494;48.744;10.106;2023-08-08T19:12:24;10.90;;;3.70;;
1010;SDS011;494;48.744;10.106;2023-08-08T19:18:41;10.23;;;3.70;;
1010;SDS011;494;48.744;10.106;2023-08-08T19:21:15;10.70;;;3.60;;
1010;SDS011;494;48.744;10.106;2023-08-08T19:23:46;11.87;;;4.20;;
1010;SDS011;494;48.744;10.106;2023-08-08T19:26:16;11.20;;;3.70;;
1010;SDS011;494;48.744;10.106;2023-08-08T19:28:45;13.47;;;4.20;;
1010;SDS011;494;48.744;10.106;2023-08-08T19:31:16;11.80;;;3.67;;
1010;SDS011;494;48.744;10.106;2023-08-08T19:33:45;10.50;;;3.60;;
1010;SDS011;494;48.744;10.106;2023-08-08T19:36:33;9.60;;;3.30;;
1010;SDS011;494;48.744;10.106;2023-08-08T19:39:04;10.00;;;3.70;;
1010;SDS011;494;48.744;10.106;2023-08-08T19:41:35;13.10;;;4.07;;
1010;SDS011;494;48.744;10.106;2023-08-08T19:44:07;10.10;;;3.60;;
1010;SDS011;494;48.744;10.106;2023-08-08T19:46:43;10.07;;;3.53;;
1010;SDS011;494;48.744;10.106;2023-08-08T19:49:38;11.00;;;4.13;;
1010;SDS011;494;48.744;10.106;2023-08-08T19:52:08;15.20;;;4.70;;
1010;SDS011;494;48.744;10.106;2023-08-08T19:54:38;9.87;;;3.60;;
1010;SDS011;494;48.744;10.106;2023-08-08T19:57:10;14.43;;;4.30;;
1010;SDS011;494;48.744;10.106;2023-08-08T19:59:41;12.00;;;4.07;;
1010;SDS011;494;48.744;10.106;2023-08-08T20:02:15;10.33;;;3.80;;
1010;SDS011;494;48.744;10.106;2023-08-08T20:04:50;10.73;;;3.40;;
1010;SDS011;494;48.744;10.106;2023-08-08T20:07:20;12.10;;;3.93;;
1010;SDS011;494;48.744;10.106;2023-08-08T20:09:52;12.83;;;3.90;;
1010;SDS011;494;48.744;10.106;2023-08-08T20:12:38;12.23;;;4.00;;
1010;SDS011;494;48.744;10.106;2023-08-08T20:15:09;10.63;;;4.20;;
1010;SDS011;494;48.744;10.106;2023-08-08T20:17:43;12.90;;;3.77;;
1010;SDS011;494;48.744;10.106;2023-08-08T20:20:12;12.60;;;4.03;;
1010;SDS011;494;48.744;10.106;2023-08-08T20:22:42;10.10;;;4.07;;
1010;SDS011;494;48.744;10.106;2023-08-08T20:25:15;9.40;;;3.40;;
1010;SDS011;494;48.744;10.106;2023-08-08T20:28:03;11.90;;;3.90;;
1010;SDS011;494;48.744;10.106;2023-08-08T20:30:50;11.50;;;4.53;;
1010;SDS011;494;48.744;10.106;2023-08-08T20:33:22;13.20;;;3.80;;
1010;SDS011;494;48.744;10.106;2023-08-08T20:41:47;14.33;;;4.93;;
1010;SDS011;494;48.744;10.106;2023-08-08T20:50:37;12.10;;;4.00;;
1010;SDS011;494;48.744;10.106;2023-08-08T20:53:08;13.40;;;4.97;;
1010;SDS011;494;48.744;10.106;2023-08-08T20:55:40;11.20;;;4.47;;
1010;SDS011;494;48.744;10.106;2023-08-08T21:06:50;14.30;;;5.10;;
1010;SDS011;494;48.744;10.106;2023-08-08T21:12:40;16.53;;;5.63;;
1010;SDS011;494;48.744;10.106;2023-08-08T21:15:11;12.80;;;6.03;;
1010;SDS011;494;48.744;10.106;2023-08-08T21:17:46;14.30;;;5.90;;
1010;SDS011;494;48.744;10.106;2023-08-08T21:20:16;18.20;;;6.57;;
1010;SDS011;494;48.744;10.106;2023-08-08T21:22:53;14.77;;;5.67;;
1010;SDS011;494;48.744;10.106;2023-08-08T21:25:22;11.93;;;4.60;;
1010;SDS011;494;48.744;10.106;2023-08-08T21:27:53;11.80;;;4.93;;
1010;SDS011;494;48.744;10.106;2023-08-08T21:33:16;14.97;;;4.77;;
1010;SDS011;494;48.744;10.106;2023-08-08T21:35:45;11.30;;;4.70;;
1010;SDS011;494;48.744;10.106;2023-08-08T21:38:19;12.80;;;4.30;;
1010;SDS011;494;48.744;10.106;2023-08-08T21:40:52;11.20;;;4.70;;
1010;SDS011;494;48.744;10.106;2023-08-08T21:43:25;10.87;;;4.50;;
1010;SDS011;494;48.744;10.106;2023-08-08T21:45:55;10.00;;;3.90;;
1010;SDS011;494;48.744;10.106;2023-08-08T21:48:32;10.20;;;3.70;;
1010;SDS011;494;48.744;10.106;2023-08-08T21:51:03;9.47;;;3.70;;
1010;SDS011;494;48.744;10.106;2023-08-08T21:53:41;10.20;;;3.97;;
1010;SDS011;494;48.744;10.106;2023-08-08T21:56:15;11.80;;;3.47;;
1010;SDS011;494;48.744;10.106;2023-08-08T21:58:46;9.20;;;3.23;;
1010;SDS011;494;48.744;10.106;2023-08-08T22:01:16;11.10;;;3.93;;
1010;SDS011;494;48.744;10.106;2023-08-08T22:03:51;12.63;;;4.23;;
1010;SDS011;494;48.744;10.106;2023-08-08T22:06:23;11.17;;;4.00;;
1010;SDS011;494;48.744;10.106;2023-08-08T22:08:58;11.10;;;3.90;;
1010;SDS011;494;48.744;10.106;2023-08-08T22:11:32;11.10;;;4.43;;
1010;SDS011;494;48.744;10.106;2023-08-08T22:14:02;11.27;;;4.40;;
1010;SDS011;494;48.744;10.106;2023-08-08T22:16:32;12.47;;;4.30;;
1010;SDS011;494;48.744;10.106;2023-08-08T22:19:04;11.77;;;4.50;;
1010;SDS011;494;48.744;10.106;2023-08-08T22:21:33;13.17;;;4.00;;
1010;SDS011;494;48.744;10.106;2023-08-08T22:24:05;11.73;;;4.40;;
1010;SDS011;494;48.744;10.106;2023-08-08T22:26:35;14.13;;;4.17;;
1010;SDS011;494;48.744;10.106;2023-08-08T22:29:05;10.90;;;4.00;;
1010;SDS011;494;48.744;10.106;2023-08-08T22:31:37;12.73;;;4.27;;
1010;SDS011;494;48.744;10.106;2023-08-08T22:34:06;11.30;;;4.40;;
1010;SDS011;494;48.744;10.106;2023-08-08T22:36:36;11.87;;;4.07;;
1010;SDS011;494;48.744;10.106;2023-08-08T22:39:06;9.83;;;3.73;;
1010;SDS011;494;48.744;10.106;2023-08-08T22:41:36;15.23;;;4.50;;
1010;SDS011;494;48.744;10.106;2023-08-08T22:44:06;10.37;;;3.70;;
1010;SDS011;494;48.744;10.106;2023-08-08T22:46:36;11.67;;;4.00;;
1010;SDS011;494;48.744;10.106;2023-08-08T22:49:06;11.60;;;4.20;;
1010;SDS011;494;48.744;10.106;2023-08-08T22:51:38;10.03;;;4.23;;
1010;SDS011;494;48.744;10.106;2023-08-08T22:54:13;12.00;;;4.80;;
1010;SDS011;494;48.744;10.106;2023-08-08T22:56:45;12.13;;;4.27;;
1010;SDS011;494;48.744;10.106;2023-08-08T22:59:16;11.00;;;4.60;;
1010;SDS011;494;48.744;10.106;2023-08-08T23:01:47;13.13;;;4.40;;
1010;SDS011;494;48.744;10.106;2023-08-08T23:04:17;11.53;;;4.17;;
1010;SDS011;494;48.744;10.106;2023-08-08T23:06:48;10.43;;;4.30;;
1010;SDS011;494;48.744;10.106;2023-08-08T23:09:21;11.50;;;4.17;;
1010;SDS011;494;48.744;10.106;2023-08-08T23:11:54;10.40;;;4.20;;
1010;SDS011;494;48.744;10.106;2023-08-08T23:14:25;10.60;;;3.90;;
1010;SDS011;494;48.744;10.106;2023-08-08T23:16:55;11.43;;;4.13;;
1010;SDS011;494;48.744;10.106;2023-08-08T23:19:29;11.60;;;4.07;;
1010;SDS011;494;48.744;10.106;2023-08-08T23:21:58;12.00;;;4.20;;
1010;SDS011;494;48.744;10.106;2023-08-08T23:24:29;12.40;;;4.20;;
1010;SDS011;494;48.744;10.106;2023-08-08T23:26:58;9.97;;;4.37;;
1010;SDS011;494;48.744;10.106;2023-08-08T23:29:28;10.70;;;4.13;;
1010;SDS011;494;48.744;10.106;2023-08-08T23:31:57;10.77;;;4.57;;
1010;SDS011;494;48.744;10.106;2023-08-08T23:34:26;12.27;;;4.50;;
1010;SDS011;494;48.744;10.106;2023-08-08T23:36:59;10.50;;;4.20;;
1010;SDS011;494;48.744;10.106;2023-08-08T23:39:34;11.23;;;4.83;;
1010;SDS011;494;48.744;10.106;2023-08-08T23:42:03;13.43;;;4.50;;
1010;SDS011;494;48.744;10.106;2023-08-08T23:44:33;10.83;;;4.87;;
1010;SDS011;494;48.744;10.106;2023-08-08T23:47:02;10.37;;;4.20;;
1010;SDS011;494;48.744;10.106;2023-08-08T23:49:32;11.83;;;4.03;;
1010;SDS011;494;48.744;10.106;2023-08-08T23:52:01;10.27;;;4.10;;